sensor_id;sensor_type;location;lat;lon;timestamp;P1;durP1;ratioP1;P2;durP2;ratioP2
67562;SDS011;54392;53.556;49.214;2022-07-29T00:02:07;8.45;;;6.47;;
67562;SDS011;54392;53.556;49.214;2022-07-29T00:04:36;8.40;;;7.22;;
67562;SDS011;54392;53.556;49.214;2022-07-29T00:07:07;10.27;;;8.57;;
67562;SDS011;54392;53.556;49.214;2022-07-29T00:09:42;9.65;;;8.52;;
67562;SDS011;54392;53.556;49.214;2022-07-29T00:12:11;7.30;;;6.60;;
67562;SDS011;54392;53.556;49.214;2022-07-29T00:14:37;11.73;;;10.52;;
67562;SDS011;54392;53.556;49.214;2022-07-29T00:17:06;9.70;;;7.80;;
67562;SDS011;54392;53.556;49.214;2022-07-29T00:19:37;22.83;;;10.35;;
67562;SDS011;54392;53.556;49.214;2022-07-29T00:22:03;11.45;;;6.50;;
67562;SDS011;54392;53.556;49.214;2022-07-29T00:24:36;17.33;;;10.55;;
67562;SDS011;54392;53.556;49.214;2022-07-29T00:27:02;16.33;;;8.88;;
67562;SDS011;54392;53.556;49.214;2022-07-29T00:29:32;10.63;;;8.70;;
67562;SDS011;54392;53.556;49.214;2022-07-29T00:32:04;17.83;;;8.70;;
67562;SDS011;54392;53.556;49.214;2022-07-29T00:34:31;16.67;;;10.40;;
67562;SDS011;54392;53.556;49.214;2022-07-29T00:37:18;10.93;;;7.45;;
67562;SDS011;54392;53.556;49.214;2022-07-29T00:39:50;19.30;;;10.50;;
67562;SDS011;54392;53.556;49.214;2022-07-29T00:42:16;20.73;;;13.73;;
67562;SDS011;54392;53.556;49.214;2022-07-29T00:44:50;24.83;;;13.25;;
67562;SDS011;54392;53.556;49.214;2022-07-29T00:47:19;30.67;;;12.77;;
67562;SDS011;54392;53.556;49.214;2022-07-29T00:49:45;31.37;;;12.25;;
67562;SDS011;54392;53.556;49.214;2022-07-29T00:52:20;25.85;;;12.85;;
67562;SDS011;54392;53.556;49.214;2022-07-29T00:54:51;20.95;;;8.93;;
67562;SDS011;54392;53.556;49.214;2022-07-29T00:57:21;10.07;;;7.28;;
67562;SDS011;54392;53.556;49.214;2022-07-29T00:59:47;17.58;;;9.10;;
67562;SDS011;54392;53.556;49.214;2022-07-29T01:02:15;22.02;;;12.32;;
67562;SDS011;54392;53.556;49.214;2022-07-29T01:04:47;31.17;;;16.23;;
67562;SDS011;54392;53.556;49.214;2022-07-29T01:07:13;53.00;;;25.12;;
67562;SDS011;54392;53.556;49.214;2022-07-29T01:09:46;77.47;;;35.40;;
67562;SDS011;54392;53.556;49.214;2022-07-29T01:12:18;84.30;;;37.08;;
67562;SDS011;54392;53.556;49.214;2022-07-29T01:14:53;85.53;;;35.53;;
67562;SDS011;54392;53.556;49.214;2022-07-29T01:17:21;63.80;;;26.73;;
67562;SDS011;54392;53.556;49.214;2022-07-29T01:22:53;42.03;;;23.40;;
67562;SDS011;54392;53.556;49.214;2022-07-29T01:30:56;37.58;;;15.93;;
67562;SDS011;54392;53.556;49.214;2022-07-29T01:33:26;29.67;;;16.25;;
67562;SDS011;54392;53.556;49.214;2022-07-29T01:36:13;21.70;;;12.85;;
67562;SDS011;54392;53.556;49.214;2022-07-29T01:38:46;25.25;;;14.63;;
67562;SDS011;54392;53.556;49.214;2022-07-29T01:41:22;18.65;;;11.43;;
67562;SDS011;54392;53.556;49.214;2022-07-29T01:43:50;12.73;;;11.02;;
67562;SDS011;54392;53.556;49.214;2022-07-29T01:46:30;19.90;;;13.20;;
67562;SDS011;54392;53.556;49.214;2022-07-29T01:49:18;11.95;;;10.48;;
67562;SDS011;54392;53.556;49.214;2022-07-29T01:51:53;21.77;;;12.32;;
67562;SDS011;54392;53.556;49.214;2022-07-29T01:57:04;14.80;;;11.00;;
67562;SDS011;54392;53.556;49.214;2022-07-29T01:59:33;12.07;;;11.00;;
67562;SDS011;54392;53.556;49.214;2022-07-29T02:02:00;12.35;;;10.35;;
67562;SDS011;54392;53.556;49.214;2022-07-29T02:04:26;14.10;;;12.27;;
67562;SDS011;54392;53.556;49.214;2022-07-29T02:06:54;16.20;;;14.45;;
67562;SDS011;54392;53.556;49.214;2022-07-29T02:09:55;16.30;;;12.27;;
67562;SDS011;54392;53.556;49.214;2022-07-29T02:12:25;24.42;;;14.73;;
67562;SDS011;54392;53.556;49.214;2022-07-29T02:14:54;15.60;;;14.00;;
67562;SDS011;54392;53.556;49.214;2022-07-29T02:17:23;16.62;;;13.05;;
67562;SDS011;54392;53.556;49.214;2022-07-29T02:19:55;17.02;;;15.35;;
67562;SDS011;54392;53.556;49.214;2022-07-29T02:22:23;22.13;;;14.87;;
67562;SDS011;54392;53.556;49.214;2022-07-29T02:24:57;19.35;;;15.27;;
67562;SDS011;54392;53.556;49.214;2022-07-29T02:27:24;34.13;;;16.67;;
67562;SDS011;54392;53.556;49.214;2022-07-29T02:29:52;19.45;;;14.95;;
67562;SDS011;54392;53.556;49.214;2022-07-29T02:32:21;16.95;;;14.43;;
67562;SDS011;54392;53.556;49.214;2022-07-29T02:34:51;28.52;;;18.70;;
67562;SDS011;54392;53.556;49.214;2022-07-29T02:37:18;24.12;;;17.67;;
67562;SDS011;54392;53.556;49.214;2022-07-29T02:39:50;19.15;;;13.75;;
67562;SDS011;54392;53.556;49.214;2022-07-29T02:42:22;24.33;;;13.88;;
67562;SDS011;54392;53.556;49.214;2022-07-29T02:44:52;20.15;;;14.63;;
67562;SDS011;54392;53.556;49.214;2022-07-29T02:52:52;20.55;;;11.68;;
67562;SDS011;54392;53.556;49.214;2022-07-29T02:55:32;21.27;;;14.10;;
67562;SDS011;54392;53.556;49.214;2022-07-29T03:00:32;19.42;;;12.15;;
67562;SDS011;54392;53.556;49.214;2022-07-29T03:03:01;20.60;;;12.37;;
67562;SDS011;54392;53.556;49.214;2022-07-29T03:05:30;15.38;;;12.25;;
67562;SDS011;54392;53.556;49.214;2022-07-29T03:07:57;15.77;;;13.57;;
67562;SDS011;54392;53.556;49.214;2022-07-29T03:10:33;14.30;;;11.38;;
67562;SDS011;54392;53.556;49.214;2022-07-29T03:13:06;21.62;;;12.23;;
67562;SDS011;54392;53.556;49.214;2022-07-29T03:15:33;18.83;;;13.50;;
67562;SDS011;54392;53.556;49.214;2022-07-29T03:18:05;21.65;;;11.77;;
67562;SDS011;54392;53.556;49.214;2022-07-29T03:20:35;17.12;;;13.27;;
67562;SDS011;54392;53.556;49.214;2022-07-29T03:23:08;16.90;;;11.98;;
67562;SDS011;54392;53.556;49.214;2022-07-29T03:25:37;16.35;;;11.75;;
67562;SDS011;54392;53.556;49.214;2022-07-29T03:28:03;24.63;;;13.25;;
67562;SDS011;54392;53.556;49.214;2022-07-29T03:30:29;17.52;;;12.95;;
67562;SDS011;54392;53.556;49.214;2022-07-29T03:32:58;17.45;;;11.20;;
67562;SDS011;54392;53.556;49.214;2022-07-29T03:35:24;13.55;;;11.88;;
67562;SDS011;54392;53.556;49.214;2022-07-29T03:37:51;20.17;;;10.45;;
67562;SDS011;54392;53.556;49.214;2022-07-29T03:40:25;20.05;;;11.85;;
67562;SDS011;54392;53.556;49.214;2022-07-29T03:43:06;18.23;;;13.68;;
67562;SDS011;54392;53.556;49.214;2022-07-29T03:45:37;15.52;;;12.60;;
67562;SDS011;54392;53.556;49.214;2022-07-29T03:48:08;17.33;;;11.32;;
67562;SDS011;54392;53.556;49.214;2022-07-29T03:50:39;16.73;;;9.88;;
67562;SDS011;54392;53.556;49.214;2022-07-29T03:53:08;26.60;;;12.70;;
67562;SDS011;54392;53.556;49.214;2022-07-29T03:55:36;17.35;;;11.80;;
67562;SDS011;54392;53.556;49.214;2022-07-29T03:58:12;15.25;;;10.00;;
67562;SDS011;54392;53.556;49.214;2022-07-29T04:00:45;13.62;;;10.98;;
67562;SDS011;54392;53.556;49.214;2022-07-29T04:03:16;14.25;;;12.50;;
67562;SDS011;54392;53.556;49.214;2022-07-29T04:05:42;19.85;;;10.95;;
67562;SDS011;54392;53.556;49.214;2022-07-29T04:08:11;26.10;;;12.45;;
67562;SDS011;54392;53.556;49.214;2022-07-29T04:10:40;14.02;;;10.25;;
67562;SDS011;54392;53.556;49.214;2022-07-29T04:13:06;15.07;;;10.27;;
67562;SDS011;54392;53.556;49.214;2022-07-29T04:15:32;16.55;;;9.95;;
67562;SDS011;54392;53.556;49.214;2022-07-29T04:17:58;23.02;;;11.10;;
67562;SDS011;54392;53.556;49.214;2022-07-29T04:20:35;13.70;;;9.93;;
67562;SDS011;54392;53.556;49.214;2022-07-29T04:23:04;14.82;;;9.52;;
67562;SDS011;54392;53.556;49.214;2022-07-29T04:25:37;24.00;;;9.73;;
67562;SDS011;54392;53.556;49.214;2022-07-29T04:28:07;11.23;;;8.27;;
67562;SDS011;54392;53.556;49.214;2022-07-29T04:30:34;18.90;;;9.35;;
67562;SDS011;54392;53.556;49.214;2022-07-29T04:33:06;17.27;;;8.73;;
67562;SDS011;54392;53.556;49.214;2022-07-29T04:35:37;12.35;;;8.40;;
67562;SDS011;54392;53.556;49.214;2022-07-29T04:38:04;9.63;;;7.32;;
67562;SDS011;54392;53.556;49.214;2022-07-29T04:40:34;13.45;;;6.90;;
67562;SDS011;54392;53.556;49.214;2022-07-29T04:43:03;8.05;;;6.78;;
67562;SDS011;54392;53.556;49.214;2022-07-29T04:45:29;13.30;;;6.05;;
67562;SDS011;54392;53.556;49.214;2022-07-29T04:47:58;7.90;;;6.72;;
67562;SDS011;54392;53.556;49.214;2022-07-29T04:50:25;8.85;;;5.97;;
67562;SDS011;54392;53.556;49.214;2022-07-29T04:52:51;8.18;;;6.87;;
67562;SDS011;54392;53.556;49.214;2022-07-29T04:55:17;17.70;;;7.80;;
67562;SDS011;54392;53.556;49.214;2022-07-29T04:57:46;11.77;;;8.20;;
67562;SDS011;54392;53.556;49.214;2022-07-29T05:00:16;11.27;;;6.82;;
67562;SDS011;54392;53.556;49.214;2022-07-29T05:02:42;10.70;;;6.40;;
67562;SDS011;54392;53.556;49.214;2022-07-29T05:05:13;11.12;;;7.25;;
67562;SDS011;54392;53.556;49.214;2022-07-29T05:07:39;7.47;;;6.62;;
67562;SDS011;54392;53.556;49.214;2022-07-29T05:10:05;11.68;;;6.93;;
67562;SDS011;54392;53.556;49.214;2022-07-29T05:12:38;7.70;;;6.78;;
67562;SDS011;54392;53.556;49.214;2022-07-29T05:15:04;8.13;;;6.45;;
67562;SDS011;54392;53.556;49.214;2022-07-29T05:17:36;19.20;;;6.68;;
67562;SDS011;54392;53.556;49.214;2022-07-29T05:20:05;10.85;;;6.55;;
67562;SDS011;54392;53.556;49.214;2022-07-29T05:22:44;9.27;;;7.97;;
67562;SDS011;54392;53.556;49.214;2022-07-29T05:25:13;11.93;;;6.45;;
67562;SDS011;54392;53.556;49.214;2022-07-29T05:27:41;11.77;;;8.18;;
67562;SDS011;54392;53.556;49.214;2022-07-29T05:30:10;13.05;;;5.53;;
67562;SDS011;54392;53.556;49.214;2022-07-29T05:32:37;9.15;;;6.22;;
67562;SDS011;54392;53.556;49.214;2022-07-29T05:35:03;6.18;;;5.57;;
67562;SDS011;54392;53.556;49.214;2022-07-29T05:37:30;17.08;;;7.72;;
67562;SDS011;54392;53.556;49.214;2022-07-29T05:39:56;6.95;;;6.32;;
67562;SDS011;54392;53.556;49.214;2022-07-29T05:42:25;16.15;;;6.57;;
67562;SDS011;54392;53.556;49.214;2022-07-29T05:44:52;10.68;;;6.05;;
67562;SDS011;54392;53.556;49.214;2022-07-29T05:47:21;7.40;;;5.70;;
67562;SDS011;54392;53.556;49.214;2022-07-29T05:49:47;8.43;;;6.47;;
67562;SDS011;54392;53.556;49.214;2022-07-29T05:52:37;6.45;;;5.95;;
67562;SDS011;54392;53.556;49.214;2022-07-29T05:55:06;6.82;;;6.12;;
67562;SDS011;54392;53.556;49.214;2022-07-29T05:57:37;7.72;;;5.53;;
67562;SDS011;54392;53.556;49.214;2022-07-29T06:00:09;6.22;;;5.57;;
67562;SDS011;54392;53.556;49.214;2022-07-29T06:02:38;6.72;;;6.07;;
67562;SDS011;54392;53.556;49.214;2022-07-29T06:05:07;7.85;;;6.55;;
67562;SDS011;54392;53.556;49.214;2022-07-29T06:07:33;8.82;;;4.72;;
67562;SDS011;54392;53.556;49.214;2022-07-29T06:10:00;8.77;;;5.75;;
67562;SDS011;54392;53.556;49.214;2022-07-29T06:12:26;4.95;;;4.45;;
67562;SDS011;54392;53.556;49.214;2022-07-29T06:14:55;5.35;;;4.85;;
67562;SDS011;54392;53.556;49.214;2022-07-29T06:17:41;14.70;;;6.28;;
67562;SDS011;54392;53.556;49.214;2022-07-29T06:20:13;5.18;;;4.78;;
67562;SDS011;54392;53.556;49.214;2022-07-29T06:22:41;5.50;;;5.00;;
67562;SDS011;54392;53.556;49.214;2022-07-29T06:27:42;8.20;;;5.90;;
67562;SDS011;54392;53.556;49.214;2022-07-29T06:30:08;10.73;;;6.32;;
67562;SDS011;54392;53.556;49.214;2022-07-29T06:32:35;5.53;;;5.00;;
67562;SDS011;54392;53.556;49.214;2022-07-29T06:35:01;6.10;;;5.05;;
67562;SDS011;54392;53.556;49.214;2022-07-29T06:37:30;7.70;;;6.18;;
67562;SDS011;54392;53.556;49.214;2022-07-29T06:40:08;15.70;;;4.90;;
67562;SDS011;54392;53.556;49.214;2022-07-29T06:42:59;5.40;;;4.93;;
67562;SDS011;54392;53.556;49.214;2022-07-29T06:45:28;19.37;;;6.85;;
67562;SDS011;54392;53.556;49.214;2022-07-29T06:47:57;6.25;;;5.62;;
67562;SDS011;54392;53.556;49.214;2022-07-29T06:50:23;7.35;;;5.75;;
67562;SDS011;54392;53.556;49.214;2022-07-29T06:52:49;6.40;;;5.80;;
67562;SDS011;54392;53.556;49.214;2022-07-29T06:55:18;8.63;;;6.82;;
67562;SDS011;54392;53.556;49.214;2022-07-29T06:57:47;8.30;;;6.10;;
67562;SDS011;54392;53.556;49.214;2022-07-29T07:00:20;7.53;;;4.43;;
67562;SDS011;54392;53.556;49.214;2022-07-29T07:02:49;6.87;;;5.05;;
67562;SDS011;54392;53.556;49.214;2022-07-29T07:05:15;6.93;;;5.45;;
67562;SDS011;54392;53.556;49.214;2022-07-29T07:07:41;5.80;;;5.30;;
67562;SDS011;54392;53.556;49.214;2022-07-29T07:12:39;9.02;;;5.65;;
67562;SDS011;54392;53.556;49.214;2022-07-29T07:15:05;10.77;;;5.53;;
67562;SDS011;54392;53.556;49.214;2022-07-29T07:17:35;5.70;;;5.15;;
67562;SDS011;54392;53.556;49.214;2022-07-29T07:20:04;5.93;;;5.20;;
67562;SDS011;54392;53.556;49.214;2022-07-29T07:22:31;6.25;;;5.55;;
67562;SDS011;54392;53.556;49.214;2022-07-29T07:25:02;9.48;;;6.28;;
67562;SDS011;54392;53.556;49.214;2022-07-29T07:27:28;15.18;;;5.95;;
67562;SDS011;54392;53.556;49.214;2022-07-29T07:29:55;13.32;;;6.20;;
67562;SDS011;54392;53.556;49.214;2022-07-29T07:32:21;7.68;;;5.45;;
67562;SDS011;54392;53.556;49.214;2022-07-29T07:34:56;6.12;;;5.55;;
67562;SDS011;54392;53.556;49.214;2022-07-29T07:37:25;15.60;;;6.32;;
67562;SDS011;54392;53.556;49.214;2022-07-29T07:39:52;5.50;;;4.95;;
67562;SDS011;54392;53.556;49.214;2022-07-29T07:42:21;9.50;;;6.72;;
67562;SDS011;54392;53.556;49.214;2022-07-29T07:44:52;7.87;;;4.62;;
67562;SDS011;54392;53.556;49.214;2022-07-29T07:47:21;8.68;;;6.57;;
67562;SDS011;54392;53.556;49.214;2022-07-29T07:49:57;12.13;;;7.57;;
67562;SDS011;54392;53.556;49.214;2022-07-29T07:52:45;8.10;;;7.40;;
67562;SDS011;54392;53.556;49.214;2022-07-29T07:55:23;10.07;;;8.38;;
67562;SDS011;54392;53.556;49.214;2022-07-29T07:57:49;6.03;;;5.55;;
67562;SDS011;54392;53.556;49.214;2022-07-29T08:00:23;6.82;;;6.10;;
67562;SDS011;54392;53.556;49.214;2022-07-29T08:02:49;15.77;;;7.28;;
67562;SDS011;54392;53.556;49.214;2022-07-29T08:05:16;9.98;;;6.18;;
67562;SDS011;54392;53.556;49.214;2022-07-29T08:07:45;7.32;;;6.57;;
67562;SDS011;54392;53.556;49.214;2022-07-29T08:10:16;10.48;;;6.90;;
67562;SDS011;54392;53.556;49.214;2022-07-29T08:13:06;9.10;;;6.65;;
67562;SDS011;54392;53.556;49.214;2022-07-29T08:15:32;7.57;;;6.80;;
67562;SDS011;54392;53.556;49.214;2022-07-29T08:17:59;6.43;;;5.87;;
67562;SDS011;54392;53.556;49.214;2022-07-29T08:20:28;6.43;;;5.80;;
67562;SDS011;54392;53.556;49.214;2022-07-29T08:22:55;7.70;;;6.18;;
67562;SDS011;54392;53.556;49.214;2022-07-29T08:25:24;23.50;;;7.93;;
67562;SDS011;54392;53.556;49.214;2022-07-29T08:27:56;11.45;;;6.18;;
67562;SDS011;54392;53.556;49.214;2022-07-29T08:30:27;22.60;;;7.53;;
67562;SDS011;54392;53.556;49.214;2022-07-29T08:33:00;9.88;;;7.62;;
67562;SDS011;54392;53.556;49.214;2022-07-29T08:35:26;10.75;;;7.93;;
67562;SDS011;54392;53.556;49.214;2022-07-29T08:37:53;10.68;;;9.65;;
67562;SDS011;54392;53.556;49.214;2022-07-29T08:40:24;13.90;;;7.72;;
67562;SDS011;54392;53.556;49.214;2022-07-29T08:42:54;8.70;;;7.28;;
67562;SDS011;54392;53.556;49.214;2022-07-29T08:45:26;7.57;;;6.90;;
67562;SDS011;54392;53.556;49.214;2022-07-29T08:47:56;8.18;;;7.25;;
67562;SDS011;54392;53.556;49.214;2022-07-29T08:50:34;14.30;;;8.27;;
67562;SDS011;54392;53.556;49.214;2022-07-29T08:53:07;7.40;;;6.65;;
67562;SDS011;54392;53.556;49.214;2022-07-29T08:55:40;10.85;;;8.35;;
67562;SDS011;54392;53.556;49.214;2022-07-29T08:58:11;5.47;;;4.75;;
67562;SDS011;54392;53.556;49.214;2022-07-29T09:00:42;10.52;;;5.32;;
67562;SDS011;54392;53.556;49.214;2022-07-29T09:03:09;14.30;;;6.32;;
67562;SDS011;54392;53.556;49.214;2022-07-29T09:05:43;10.52;;;6.18;;
67562;SDS011;54392;53.556;49.214;2022-07-29T09:08:13;6.90;;;5.40;;
67562;SDS011;54392;53.556;49.214;2022-07-29T09:10:44;5.72;;;4.60;;
67562;SDS011;54392;53.556;49.214;2022-07-29T09:13:11;7.28;;;6.50;;
67562;SDS011;54392;53.556;49.214;2022-07-29T09:15:46;6.93;;;5.05;;
67562;SDS011;54392;53.556;49.214;2022-07-29T09:18:12;8.27;;;5.82;;
67562;SDS011;54392;53.556;49.214;2022-07-29T09:20:38;5.90;;;5.30;;
67562;SDS011;54392;53.556;49.214;2022-07-29T09:23:26;8.00;;;6.50;;
67562;SDS011;54392;53.556;49.214;2022-07-29T09:28:25;7.62;;;6.10;;
67562;SDS011;54392;53.556;49.214;2022-07-29T09:30:55;15.80;;;5.85;;
67562;SDS011;54392;53.556;49.214;2022-07-29T09:33:30;13.20;;;5.65;;
67562;SDS011;54392;53.556;49.214;2022-07-29T09:36:06;8.95;;;4.93;;
67562;SDS011;54392;53.556;49.214;2022-07-29T09:38:39;8.05;;;5.43;;
67562;SDS011;54392;53.556;49.214;2022-07-29T09:41:07;15.80;;;5.70;;
67562;SDS011;54392;53.556;49.214;2022-07-29T09:43:39;5.20;;;4.57;;
67562;SDS011;54392;53.556;49.214;2022-07-29T09:46:12;5.90;;;5.30;;
67562;SDS011;54392;53.556;49.214;2022-07-29T09:48:39;8.10;;;6.72;;
67562;SDS011;54392;53.556;49.214;2022-07-29T09:51:17;7.07;;;6.03;;
67562;SDS011;54392;53.556;49.214;2022-07-29T09:53:45;9.45;;;7.50;;
67562;SDS011;54392;53.556;49.214;2022-07-29T09:56:11;6.82;;;6.05;;
67562;SDS011;54392;53.556;49.214;2022-07-29T09:58:43;7.85;;;6.32;;
67562;SDS011;54392;53.556;49.214;2022-07-29T10:01:09;14.02;;;6.28;;
67562;SDS011;54392;53.556;49.214;2022-07-29T10:03:53;10.13;;;6.53;;
67562;SDS011;54392;53.556;49.214;2022-07-29T10:06:21;6.68;;;6.03;;
67562;SDS011;54392;53.556;49.214;2022-07-29T10:08:53;6.68;;;5.28;;
67562;SDS011;54392;53.556;49.214;2022-07-29T10:11:27;9.18;;;7.07;;
67562;SDS011;54392;53.556;49.214;2022-07-29T10:14:02;6.20;;;5.60;;
67562;SDS011;54392;53.556;49.214;2022-07-29T10:16:29;10.93;;;6.85;;
67562;SDS011;54392;53.556;49.214;2022-07-29T10:19:01;7.95;;;6.00;;
67562;SDS011;54392;53.556;49.214;2022-07-29T10:21:27;12.25;;;6.47;;
67562;SDS011;54392;53.556;49.214;2022-07-29T10:23:58;9.90;;;6.50;;
67562;SDS011;54392;53.556;49.214;2022-07-29T10:26:25;8.18;;;6.32;;
67562;SDS011;54392;53.556;49.214;2022-07-29T10:28:51;10.15;;;6.57;;
67562;SDS011;54392;53.556;49.214;2022-07-29T10:31:29;11.50;;;6.10;;
67562;SDS011;54392;53.556;49.214;2022-07-29T10:34:10;12.88;;;6.75;;
67562;SDS011;54392;53.556;49.214;2022-07-29T10:42:47;8.70;;;5.40;;
67562;SDS011;54392;53.556;49.214;2022-07-29T10:45:16;8.88;;;7.53;;
67562;SDS011;54392;53.556;49.214;2022-07-29T10:47:46;8.32;;;5.75;;
67562;SDS011;54392;53.556;49.214;2022-07-29T10:50:12;8.15;;;6.22;;
67562;SDS011;54392;53.556;49.214;2022-07-29T10:55:40;6.30;;;5.50;;
67562;SDS011;54392;53.556;49.214;2022-07-29T10:58:26;10.52;;;5.95;;
67562;SDS011;54392;53.556;49.214;2022-07-29T11:00:53;7.53;;;4.75;;
67562;SDS011;54392;53.556;49.214;2022-07-29T11:06:20;5.05;;;4.55;;
67562;SDS011;54392;53.556;49.214;2022-07-29T11:09:14;8.07;;;5.20;;
67562;SDS011;54392;53.556;49.214;2022-07-29T11:11:47;6.53;;;5.03;;
67562;SDS011;54392;53.556;49.214;2022-07-29T11:14:17;5.82;;;4.95;;
67562;SDS011;54392;53.556;49.214;2022-07-29T11:17:08;6.78;;;6.00;;
67562;SDS011;54392;53.556;49.214;2022-07-29T11:19:36;6.20;;;5.60;;
67562;SDS011;54392;53.556;49.214;2022-07-29T11:24:36;6.97;;;5.53;;
67562;SDS011;54392;53.556;49.214;2022-07-29T11:27:09;9.00;;;5.68;;
67562;SDS011;54392;53.556;49.214;2022-07-29T11:32:22;6.47;;;5.47;;
67562;SDS011;54392;53.556;49.214;2022-07-29T11:43:51;13.90;;;5.32;;
67562;SDS011;54392;53.556;49.214;2022-07-29T11:49:20;6.37;;;4.85;;
67562;SDS011;54392;53.556;49.214;2022-07-29T11:51:50;6.85;;;5.53;;
67562;SDS011;54392;53.556;49.214;2022-07-29T11:54:21;7.07;;;5.40;;
67562;SDS011;54392;53.556;49.214;2022-07-29T11:56:50;7.20;;;5.32;;
67562;SDS011;54392;53.556;49.214;2022-07-29T11:59:20;9.93;;;5.00;;
67562;SDS011;54392;53.556;49.214;2022-07-29T12:01:53;4.85;;;4.45;;
67562;SDS011;54392;53.556;49.214;2022-07-29T12:04:22;8.98;;;6.12;;
67562;SDS011;54392;53.556;49.214;2022-07-29T12:06:53;4.62;;;4.20;;
67562;SDS011;54392;53.556;49.214;2022-07-29T12:09:24;9.48;;;5.50;;
67562;SDS011;54392;53.556;49.214;2022-07-29T12:12:06;5.70;;;4.78;;
67562;SDS011;54392;53.556;49.214;2022-07-29T12:14:35;8.35;;;6.03;;
67562;SDS011;54392;53.556;49.214;2022-07-29T12:17:01;5.35;;;4.15;;
67562;SDS011;54392;53.556;49.214;2022-07-29T12:19:42;6.72;;;5.90;;
67562;SDS011;54392;53.556;49.214;2022-07-29T12:22:29;6.65;;;5.12;;
67562;SDS011;54392;53.556;49.214;2022-07-29T12:25:00;6.10;;;5.00;;
67562;SDS011;54392;53.556;49.214;2022-07-29T12:27:30;11.45;;;6.28;;
67562;SDS011;54392;53.556;49.214;2022-07-29T12:30:00;6.20;;;5.60;;
67562;SDS011;54392;53.556;49.214;2022-07-29T12:32:41;8.43;;;6.05;;
67562;SDS011;54392;53.556;49.214;2022-07-29T12:35:16;6.22;;;5.55;;
67562;SDS011;54392;53.556;49.214;2022-07-29T12:37:54;5.90;;;5.18;;
67562;SDS011;54392;53.556;49.214;2022-07-29T12:40:21;6.43;;;5.82;;
67562;SDS011;54392;53.556;49.214;2022-07-29T12:45:50;6.18;;;5.57;;
67562;SDS011;54392;53.556;49.214;2022-07-29T12:48:37;6.32;;;5.75;;
67562;SDS011;54392;53.556;49.214;2022-07-29T12:51:10;6.37;;;5.80;;
67562;SDS011;54392;53.556;49.214;2022-07-29T12:53:37;12.57;;;6.00;;
67562;SDS011;54392;53.556;49.214;2022-07-29T12:56:04;7.20;;;4.45;;
67562;SDS011;54392;53.556;49.214;2022-07-29T13:03:52;7.90;;;5.90;;
67562;SDS011;54392;53.556;49.214;2022-07-29T13:11:38;7.10;;;6.03;;
67562;SDS011;54392;53.556;49.214;2022-07-29T13:14:14;8.10;;;5.37;;
67562;SDS011;54392;53.556;49.214;2022-07-29T13:17:03;6.70;;;5.40;;
67562;SDS011;54392;53.556;49.214;2022-07-29T13:19:35;9.27;;;5.83;;
67562;SDS011;54392;53.556;49.214;2022-07-29T13:22:11;9.05;;;5.35;;
67562;SDS011;54392;53.556;49.214;2022-07-29T13:24:51;6.35;;;4.62;;
67562;SDS011;54392;53.556;49.214;2022-07-29T13:27:33;11.27;;;5.10;;
67562;SDS011;54392;53.556;49.214;2022-07-29T13:30:03;22.08;;;5.68;;
67562;SDS011;54392;53.556;49.214;2022-07-29T13:32:36;11.00;;;5.32;;
67562;SDS011;54392;53.556;49.214;2022-07-29T13:35:06;5.35;;;4.80;;
67562;SDS011;54392;53.556;49.214;2022-07-29T13:37:35;8.27;;;5.45;;
67562;SDS011;54392;53.556;49.214;2022-07-29T13:40:10;7.12;;;6.32;;
67562;SDS011;54392;53.556;49.214;2022-07-29T13:42:39;7.80;;;5.22;;
67562;SDS011;54392;53.556;49.214;2022-07-29T13:45:11;7.43;;;5.25;;
67562;SDS011;54392;53.556;49.214;2022-07-29T13:47:43;5.65;;;4.97;;
67562;SDS011;54392;53.556;49.214;2022-07-29T13:50:12;5.45;;;5.05;;
67562;SDS011;54392;53.556;49.214;2022-07-29T13:52:38;6.90;;;4.55;;
67562;SDS011;54392;53.556;49.214;2022-07-29T13:55:10;5.43;;;4.93;;
67562;SDS011;54392;53.556;49.214;2022-07-29T13:57:36;7.37;;;5.07;;
67562;SDS011;54392;53.556;49.214;2022-07-29T14:00:05;7.90;;;5.62;;
67562;SDS011;54392;53.556;49.214;2022-07-29T14:02:32;5.90;;;4.93;;
67562;SDS011;54392;53.556;49.214;2022-07-29T14:05:07;8.80;;;4.70;;
67562;SDS011;54392;53.556;49.214;2022-07-29T14:07:35;4.85;;;4.07;;
67562;SDS011;54392;53.556;49.214;2022-07-29T14:10:02;8.63;;;6.82;;
67562;SDS011;54392;53.556;49.214;2022-07-29T14:12:32;6.18;;;5.68;;
67562;SDS011;54392;53.556;49.214;2022-07-29T14:15:00;6.57;;;5.30;;
67562;SDS011;54392;53.556;49.214;2022-07-29T14:17:35;10.88;;;5.53;;
67562;SDS011;54392;53.556;49.214;2022-07-29T14:20:01;7.62;;;5.30;;
67562;SDS011;54392;53.556;49.214;2022-07-29T14:22:32;6.28;;;5.68;;
67562;SDS011;54392;53.556;49.214;2022-07-29T14:25:01;8.35;;;5.65;;
67562;SDS011;54392;53.556;49.214;2022-07-29T14:27:31;8.02;;;6.25;;
67562;SDS011;54392;53.556;49.214;2022-07-29T14:29:57;9.60;;;4.85;;
67562;SDS011;54392;53.556;49.214;2022-07-29T14:32:24;7.12;;;5.03;;
67562;SDS011;54392;53.556;49.214;2022-07-29T14:34:50;9.60;;;6.12;;
67562;SDS011;54392;53.556;49.214;2022-07-29T14:37:18;9.35;;;5.85;;
67562;SDS011;54392;53.556;49.214;2022-07-29T14:39:54;7.30;;;6.22;;
67562;SDS011;54392;53.556;49.214;2022-07-29T14:42:24;10.18;;;5.60;;
67562;SDS011;54392;53.556;49.214;2022-07-29T14:44:51;12.93;;;5.40;;
67562;SDS011;54392;53.556;49.214;2022-07-29T14:47:17;5.60;;;4.80;;
67562;SDS011;54392;53.556;49.214;2022-07-29T14:49:46;5.80;;;5.20;;
67562;SDS011;54392;53.556;49.214;2022-07-29T14:52:15;12.95;;;4.62;;
67562;SDS011;54392;53.556;49.214;2022-07-29T14:54:44;6.03;;;4.90;;
67562;SDS011;54392;53.556;49.214;2022-07-29T14:57:10;6.00;;;5.20;;
67562;SDS011;54392;53.556;49.214;2022-07-29T14:59:36;5.35;;;4.78;;
67562;SDS011;54392;53.556;49.214;2022-07-29T15:02:03;4.82;;;4.32;;
67562;SDS011;54392;53.556;49.214;2022-07-29T15:04:34;5.12;;;4.72;;
67562;SDS011;54392;53.556;49.214;2022-07-29T15:07:03;5.70;;;4.75;;
67562;SDS011;54392;53.556;49.214;2022-07-29T15:12:00;10.02;;;5.15;;
67562;SDS011;54392;53.556;49.214;2022-07-29T15:14:28;6.15;;;5.55;;
67562;SDS011;54392;53.556;49.214;2022-07-29T15:16:57;9.05;;;4.75;;
67562;SDS011;54392;53.556;49.214;2022-07-29T15:19:24;12.82;;;5.35;;
67562;SDS011;54392;53.556;49.214;2022-07-29T15:21:52;7.28;;;6.60;;
67562;SDS011;54392;53.556;49.214;2022-07-29T15:24:18;6.87;;;5.28;;
67562;SDS011;54392;53.556;49.214;2022-07-29T15:26:45;7.50;;;5.45;;
67562;SDS011;54392;53.556;49.214;2022-07-29T15:29:14;6.30;;;5.68;;
67562;SDS011;54392;53.556;49.214;2022-07-29T15:31:44;5.15;;;4.53;;
67562;SDS011;54392;53.556;49.214;2022-07-29T15:34:10;7.12;;;5.57;;
67562;SDS011;54392;53.556;49.214;2022-07-29T15:36:39;5.37;;;4.85;;
67562;SDS011;54392;53.556;49.214;2022-07-29T15:39:17;6.03;;;5.43;;
67562;SDS011;54392;53.556;49.214;2022-07-29T15:41:52;5.95;;;4.12;;
67562;SDS011;54392;53.556;49.214;2022-07-29T15:44:18;10.63;;;4.72;;
67562;SDS011;54392;53.556;49.214;2022-07-29T15:46:53;4.68;;;4.25;;
67562;SDS011;54392;53.556;49.214;2022-07-29T15:49:29;6.15;;;4.37;;
67562;SDS011;54392;53.556;49.214;2022-07-29T15:52:01;7.03;;;4.78;;
67562;SDS011;54392;53.556;49.214;2022-07-29T15:57:08;12.85;;;4.53;;
67562;SDS011;54392;53.556;49.214;2022-07-29T15:59:37;5.62;;;4.95;;
67562;SDS011;54392;53.556;49.214;2022-07-29T16:02:03;7.65;;;4.75;;